createdAt,value
2022-09-10T00:01:27.874Z,100717.19
2022-09-10T00:06:33.071Z,100712.31
2022-09-10T00:11:38.682Z,100702.81
2022-09-10T00:16:41.481Z,100693.84
2022-09-10T00:21:47.123Z,100693.98
2022-09-10T00:26:49.882Z,100684.80
2022-09-10T00:31:53.215Z,100681.05
2022-09-10T00:36:56.010Z,100674.00
2022-09-10T00:41:58.673Z,100669.57
2022-09-10T00:47:01.441Z,100668.65
2022-09-10T00:52:04.252Z,100668.33
2022-09-10T00:57:12.565Z,100669.48
2022-09-10T01:02:15.238Z,100673.15
2022-09-10T01:07:18.043Z,100671.95
2022-09-10T01:13:11.134Z,100662.34
2022-09-10T01:18:34.314Z,100653.17
2022-09-10T01:24:07.987Z,100649.79
2022-09-10T01:29:26.892Z,100651.54
2022-09-10T01:34:34.498Z,100645.72
2022-09-10T01:39:37.693Z,100634.14
2022-09-10T01:44:48.612Z,100637.66
2022-09-10T01:50:10.445Z,100627.80
2022-09-10T01:55:31.072Z,100617.13
2022-09-10T02:00:34.222Z,100619.52
2022-09-10T02:05:38.722Z,100617.93
2022-09-10T02:10:54.457Z,100615.61
2022-09-10T02:15:57.399Z,100616.63
2022-09-10T02:21:00.411Z,100613.02
2022-09-10T02:26:03.152Z,100603.09
2022-09-10T02:31:06.038Z,100597.63
2022-09-10T02:36:08.726Z,100597.94
2022-09-10T02:41:11.587Z,100598.77
2022-09-10T02:46:15.107Z,100596.46
2022-09-10T02:51:17.776Z,100593.38
2022-09-10T02:56:20.402Z,100585.77
2022-09-10T03:01:23.994Z,100584.59
2022-09-10T03:06:28.340Z,100579.17
2022-09-10T03:11:31.764Z,100579.79
2022-09-10T03:16:34.475Z,100584.83
2022-09-10T03:21:37.631Z,100586.48
2022-09-10T03:26:40.344Z,100591.23
2022-09-10T03:31:44.259Z,100596.42
2022-09-10T03:36:47.423Z,100601.90
2022-09-10T03:41:50.510Z,100599.18
2022-09-10T03:46:53.219Z,100592.00
2022-09-10T03:51:56.342Z,100587.73
2022-09-10T03:57:03.122Z,100585.44
2022-09-10T04:02:05.857Z,100590.16
2022-09-10T04:07:10.577Z,100594.60
2022-09-10T04:12:13.284Z,100596.67
2022-09-10T04:17:15.896Z,100599.92
2022-09-10T04:22:18.675Z,100587.52
2022-09-10T04:27:22.335Z,100580.95
2022-09-10T04:32:25.275Z,100570.77
2022-09-10T04:37:29.013Z,100559.41
2022-09-10T04:42:32.870Z,100554.99
2022-09-10T04:47:35.909Z,100544.84
2022-09-10T04:52:39.092Z,100549.23
2022-09-10T04:57:42.304Z,100557.23
2022-09-10T05:02:46.563Z,100559.02
2022-09-10T05:07:49.798Z,100545.38
2022-09-10T05:12:52.501Z,100520.35
2022-09-10T05:17:56.076Z,100529.55
2022-09-10T05:22:58.808Z,100531.96
2022-09-10T05:28:02.992Z,100522.85
2022-09-10T05:33:05.728Z,100536.31
2022-09-10T05:38:13.718Z,100537.36
2022-09-10T05:43:16.482Z,100536.09
2022-09-10T05:48:19.644Z,100531.20
2022-09-10T05:53:22.380Z,100527.25
2022-09-10T05:58:25.426Z,100523.13
2022-09-10T06:03:28.186Z,100516.51
2022-09-10T06:08:31.427Z,100511.84
2022-09-10T06:13:34.513Z,100510.92
2022-09-10T06:18:37.426Z,100507.90
2022-09-10T06:23:40.287Z,100505.85
2022-09-10T06:28:43.465Z,100502.70
2022-09-10T06:33:47.399Z,100499.13
2022-09-10T06:38:50.084Z,100498.27
2022-09-10T06:43:52.724Z,100496.59
2022-09-10T06:49:00.798Z,100494.35
2022-09-10T06:54:04.070Z,100488.27
2022-09-10T06:59:07.444Z,100496.65
2022-09-10T07:04:10.396Z,100497.39
2022-09-10T07:09:14.329Z,100492.59
2022-09-10T07:14:18.103Z,100498.71
2022-09-10T07:19:20.849Z,100496.64
2022-09-10T07:24:23.611Z,100500.89
2022-09-10T07:29:26.374Z,100508.86
2022-09-10T07:34:30.170Z,100510.55
2022-09-10T07:39:32.840Z,100513.38
2022-09-10T07:44:35.509Z,100508.32
2022-09-10T07:49:38.986Z,100511.14
2022-09-10T07:54:41.713Z,100517.14
2022-09-10T07:59:44.478Z,100519.30
2022-09-10T08:04:47.248Z,100518.34
2022-09-10T08:09:49.981Z,100521.81
2022-09-10T08:14:52.647Z,100520.48
2022-09-10T08:19:55.386Z,100524.89
2022-09-10T08:24:59.194Z,100522.04
2022-09-10T08:30:01.958Z,100523.52
2022-09-10T08:35:05.969Z,100520.38
2022-09-10T08:40:13.412Z,100517.91
2022-09-10T08:45:23.559Z,100513.31
2022-09-10T08:50:38.022Z,100515.27
2022-09-10T08:55:48.371Z,100518.36
2022-09-10T09:00:58.147Z,100517.67
2022-09-10T09:06:03.816Z,100520.23
2022-09-10T09:11:28.877Z,100521.79
2022-09-10T09:17:24.142Z,100528.36
2022-09-10T09:22:40.020Z,100519.23
2022-09-10T09:27:43.026Z,100515.84
2022-09-10T09:32:47.121Z,100524.58
2022-09-10T09:37:56.502Z,100518.50
2022-09-10T09:43:11.128Z,100518.80
2022-09-10T09:48:15.927Z,100509.22
2022-09-10T09:53:28.947Z,100509.80
2022-09-10T09:58:34.805Z,100506.38
2022-09-10T10:03:54.424Z,100501.90
2022-09-10T10:09:08.192Z,100493.76
2022-09-10T10:14:35.324Z,100493.62
2022-09-10T10:19:40.230Z,100509.67
2022-09-10T10:24:43.751Z,100494.94
2022-09-10T10:30:16.721Z,100487.27
2022-09-10T10:35:47.771Z,100477.23
2022-09-10T10:41:18.730Z,100462.84
2022-09-10T10:46:28.080Z,100460.70
2022-09-10T10:52:02.564Z,100449.54
2022-09-10T10:57:21.479Z,100459.89
2022-09-10T11:02:49.741Z,100461.15
2022-09-10T11:07:52.865Z,100459.09
2022-09-10T11:13:43.690Z,100441.36
2022-09-10T11:19:11.515Z,100439.38
2022-09-10T11:24:45.573Z,100438.46
2022-09-10T11:29:56.101Z,100446.42
2022-09-10T11:35:16.239Z,100448.92
2022-09-10T11:40:35.819Z,100438.90
2022-09-10T11:45:57.095Z,100437.80
2022-09-10T11:51:08.022Z,100434.25
2022-09-10T11:56:30.577Z,100432.36
2022-09-10T12:01:55.064Z,100425.39
2022-09-10T12:07:29.529Z,100421.77
2022-09-10T12:12:43.273Z,100426.08
2022-09-10T12:17:50.926Z,100423.36
2022-09-10T12:22:55.013Z,100414.34
2022-09-10T12:27:59.936Z,100408.54
2022-09-10T12:33:11.709Z,100399.27
2022-09-10T12:39:20.801Z,100400.88
2022-09-10T12:44:36.200Z,100392.99
2022-09-10T12:49:59.642Z,100379.86
2022-09-10T12:55:39.699Z,100377.41
2022-09-10T13:00:54.319Z,100375.02
2022-09-10T13:06:00.275Z,100372.71
2022-09-10T13:11:22.965Z,100369.52
2022-09-10T13:16:28.505Z,100362.67
2022-09-10T13:21:31.204Z,100359.07
2022-09-10T13:26:48.394Z,100359.31
2022-09-10T13:31:53.109Z,100354.32
2022-09-10T13:37:52.172Z,100354.44
2022-09-10T13:43:44.822Z,100351.78
2022-09-10T13:49:13.133Z,100345.88
2022-09-10T13:54:35.044Z,100346.38
2022-09-10T13:59:37.852Z,100345.71
2022-09-10T14:04:44.369Z,100345.29
2022-09-10T14:09:58.508Z,100340.77
2022-09-10T14:15:03.803Z,100337.46
2022-09-10T14:20:29.411Z,100335.41
2022-09-10T14:25:36.816Z,100335.85
2022-09-10T14:30:39.628Z,100334.05
2022-09-10T14:35:44.666Z,100330.23
2022-09-10T14:40:47.847Z,100332.20
2022-09-10T14:45:51.634Z,100329.48
2022-09-10T14:51:12.283Z,100331.50
2022-09-10T14:56:30.303Z,100336.29
2022-09-10T15:01:35.344Z,100333.58
2022-09-10T15:06:38.235Z,100333.73
2022-09-10T15:12:06.067Z,100334.73
2022-09-10T15:17:13.463Z,100333.70
2022-09-10T15:22:27.929Z,100328.48
2022-09-10T15:27:30.956Z,100329.11
2022-09-10T15:32:33.720Z,100322.17
2022-09-10T15:37:36.393Z,100328.14
2022-09-10T15:42:39.112Z,100328.85
2022-09-10T15:47:42.360Z,100330.95
2022-09-10T15:52:45.174Z,100332.42
2022-09-10T15:57:51.742Z,100327.48
2022-09-10T16:02:54.469Z,100328.52
2022-09-10T16:07:57.263Z,100325.94
2022-09-10T16:13:00.042Z,100324.30
2022-09-10T16:18:02.944Z,100323.48
2022-09-10T16:23:05.700Z,100319.52
2022-09-10T16:28:08.363Z,100314.35
2022-09-10T16:33:11.255Z,100317.33
2022-09-10T16:38:14.348Z,100310.52
2022-09-10T16:43:17.108Z,100306.39
2022-09-10T16:48:19.791Z,100299.09
2022-09-10T16:53:22.626Z,100300.05
2022-09-10T16:58:25.728Z,100297.83
2022-09-10T17:03:30.065Z,100298.89
2022-09-10T17:08:33.530Z,100296.41
2022-09-10T17:13:36.190Z,100294.84
2022-09-10T17:18:38.912Z,100297.80
2022-09-10T17:23:42.056Z,100293.98
2022-09-10T17:28:44.801Z,100294.91
2022-09-10T17:33:47.564Z,100293.07
2022-09-10T17:38:50.270Z,100292.27
2022-09-10T17:43:53.469Z,100291.86
2022-09-10T17:48:56.157Z,100287.50
2022-09-10T17:53:59.320Z,100284.73
2022-09-10T17:59:03.508Z,100283.88
2022-09-10T18:04:07.405Z,100280.80
2022-09-10T18:09:11.289Z,100280.32
2022-09-10T18:14:17.959Z,100281.39
2022-09-10T18:19:20.699Z,100284.08
2022-09-10T18:24:24.254Z,100283.52
2022-09-10T18:29:28.290Z,100282.32
2022-09-10T18:34:31.536Z,100283.18
2022-09-10T18:39:34.338Z,100284.59
2022-09-10T18:44:37.492Z,100284.04
2022-09-10T18:49:41.373Z,100287.63
2022-09-10T18:54:46.591Z,100288.41
2022-09-10T18:59:49.959Z,100284.46
2022-09-10T19:05:10.807Z,100281.80
2022-09-10T19:10:14.455Z,100276.92
2022-09-10T19:15:18.656Z,100269.87
2022-09-10T19:20:21.961Z,100269.41
2022-09-10T19:25:24.805Z,100266.48
2022-09-10T19:30:27.542Z,100263.60
2022-09-10T19:35:30.219Z,100256.60
2022-09-10T19:40:33.141Z,100249.52
2022-09-10T19:45:36.253Z,100246.05
2022-09-10T19:50:40.064Z,100248.97
2022-09-10T19:55:43.408Z,100241.66
2022-09-10T20:00:49.375Z,100239.59
2022-09-10T20:05:52.107Z,100236.14
2022-09-10T20:10:55.500Z,100238.38
2022-09-10T20:16:06.115Z,100234.61
2022-09-10T20:21:11.886Z,100234.88
2022-09-10T20:26:22.493Z,100232.87
2022-09-10T20:31:28.168Z,100231.64
2022-09-10T20:36:31.520Z,100224.41
2022-09-10T20:41:34.209Z,100217.73
2022-09-10T20:46:38.054Z,100214.20
2022-09-10T20:51:40.981Z,100212.58
2022-09-10T20:56:44.345Z,100212.80
2022-09-10T21:01:47.673Z,100210.14
2022-09-10T21:06:50.563Z,100209.65
2022-09-10T21:11:53.361Z,100204.65
2022-09-10T21:16:56.126Z,100204.80
2022-09-10T21:21:58.780Z,100201.97
2022-09-10T21:27:03.142Z,100201.02
2022-09-10T21:32:06.084Z,100201.89
2022-09-10T21:37:09.934Z,100197.12
2022-09-10T21:42:12.617Z,100190.28
2022-09-10T21:47:15.391Z,100194.40
2022-09-10T21:52:18.095Z,100193.98
2022-09-10T21:57:20.848Z,100188.25
2022-09-10T22:02:23.712Z,100187.99
2022-09-10T22:07:27.101Z,100187.09
2022-09-10T22:12:29.772Z,100184.88
2022-09-10T22:17:32.466Z,100177.05
2022-09-10T22:22:35.241Z,100175.86
2022-09-10T22:27:39.646Z,100176.65
2022-09-10T22:32:42.377Z,100176.23
2022-09-10T22:37:46.059Z,100170.16
2022-09-10T22:42:48.705Z,100170.46
2022-09-10T22:47:51.395Z,100166.89
2022-09-10T22:52:54.648Z,100165.84
2022-09-10T22:57:57.378Z,100165.48
2022-09-10T23:03:01.693Z,100164.80
2022-09-10T23:08:04.361Z,100162.04
2022-09-10T23:13:07.062Z,100154.30
2022-09-10T23:18:09.810Z,100144.47
2022-09-10T23:23:12.521Z,100137.67
2022-09-10T23:28:15.264Z,100130.84
2022-09-10T23:33:18.095Z,100133.53
2022-09-10T23:38:21.312Z,100130.47
2022-09-10T23:43:24.442Z,100126.61
2022-09-10T23:48:27.281Z,100127.95
2022-09-10T23:53:32.553Z,100125.76
2022-09-10T23:58:35.495Z,100121.14
